Time;durP1;ratioP1;P1;durP2;ratioP2;P2;SDS_P1;SDS_P2;PMS_P1;PMS_P2;Temp;Humidity;BMP_temperature;BMP_pressure;BME280_temperature;BME280_humidity;BME280_pressure;Samples;Min_cycle;Max_cycle;Signal;HPM_P1;HPM_P2
2024/02/06 00:02:02;;;;;;;;;;;;;;;8.78;100.00;101425.41;5114282;28;19943;-73
2024/02/06 00:04:27;;;;;;;;;;;;;;;8.79;100.00;101416.69;5113684;28;19958;-73
2024/02/06 00:06:53;;;;;;;;;;;;;;;8.79;100.00;101414.94;5114075;28;19916;-73
2024/02/06 00:09:20;;;;;;;;;;;;;;;8.78;100.00;101410.59;5114302;28;19915;-73
2024/02/06 00:11:45;;;;;;;;;;;;;;;8.79;100.00;101412.31;5113155;28;19922;-73
2024/02/06 00:14:10;;;;;;;;;;;;;;;8.79;100.00;101404.47;5114223;28;20142;-73
2024/02/06 00:16:37;;;;;;;;;;;;;;;8.83;100.00;101400.03;5115361;28;19999;-73
2024/02/06 00:19:02;;;;;;;;;;;;;;;8.82;100.00;101406.16;5114427;28;19919;-73
2024/02/06 00:21:27;;;;;;;;;;;;;;;8.81;100.00;101389.63;5116483;28;20404;-73
2024/02/06 00:23:52;;;;;;;;;;;;;;;8.83;100.00;101410.50;5115506;28;20153;-73
2024/02/06 00:26:18;;;;;;;;;;;;;;;8.82;100.00;101387.88;5115084;28;20246;-73
2024/02/06 00:28:43;;;;;;;;;;;;;;;8.82;100.00;101414.88;5114948;28;19923;-73
2024/02/06 00:31:08;;;;;;;;;;;;;;;8.83;100.00;101413.09;5115431;28;19916;-73
2024/02/06 00:33:34;;;;;;;;;;;;;;;8.82;100.00;101411.38;5115817;28;19919;-73
2024/02/06 00:36:01;;;;;;;;;;;;;;;8.85;100.00;101398.25;5115328;28;19924;-73
2024/02/06 00:38:26;;;;;;;;;;;;;;;8.86;100.00;101386.91;5115421;28;19916;-73
2024/02/06 00:40:51;;;;;;;;;;;;;;;8.84;100.00;101400.00;5115135;28;20232;-73
2024/02/06 00:43:16;;;;;;;;;;;;;;;8.86;100.00;101386.91;5115583;28;19924;-73
2024/02/06 00:45:42;;;;;;;;;;;;;;;8.87;100.00;101382.53;5115582;28;19990;-73
2024/02/06 00:48:07;;;;;;;;;;;;;;;8.87;100.00;101388.63;5115415;28;19916;-73
2024/02/06 00:50:32;;;;;;;;;;;;;;;8.87;100.00;101382.53;5115397;28;19923;-74
2024/02/06 00:52:58;;;;;;;;;;;;;;;8.89;100.00;101380.75;5115275;28;19916;-73
2024/02/06 00:55:23;;;;;;;;;;;;;;;8.88;100.00;101385.13;5115478;28;20231;-74
2024/02/06 00:57:49;;;;;;;;;;;;;;;8.90;100.00;101378.09;5115544;28;20154;-73
2024/02/06 01:00:15;;;;;;;;;;;;;;;8.90;100.00;101370.25;5115264;28;20027;-73
2024/02/06 01:02:40;;;;;;;;;;;;;;;8.91;100.00;101368.50;5115486;28;19955;-73
2024/02/06 01:05:05;;;;;;;;;;;;;;;8.92;100.00;101376.31;5115204;28;19938;-73
2024/02/06 01:07:30;;;;;;;;;;;;;;;8.92;100.00;101360.63;5115610;28;19947;-73
2024/02/06 01:09:56;;;;;;;;;;;;;;;8.94;100.00;101369.28;5114983;28;19915;-73
2024/02/06 01:12:21;;;;;;;;;;;;;;;8.92;100.00;101365.84;5115590;28;19942;-73
2024/02/06 01:14:47;;;;;;;;;;;;;;;8.92;100.00;101354.56;5115364;28;20199;-73
2024/02/06 01:17:12;;;;;;;;;;;;;;;8.93;100.00;101351.03;5114107;28;19923;-73
2024/02/06 01:19:37;;;;;;;;;;;;;;;8.92;100.00;101342.34;5115704;28;19922;-73
2024/02/06 01:22:03;;;;;;;;;;;;;;;8.93;100.00;101341.47;5114047;28;19939;-73
2024/02/06 01:24:28;;;;;;;;;;;;;;;8.92;100.00;101342.34;5115025;28;19962;-73
2024/02/06 01:26:53;;;;;;;;;;;;;;;8.92;100.00;101341.50;5114466;28;20207;-73
2024/02/06 01:29:18;;;;;;;;;;;;;;;8.91;100.00;101338.00;5114635;28;20191;-73
2024/02/06 01:31:46;;;;;;;;;;;;;;;8.91;100.00;101322.34;5115132;28;19916;-73
2024/02/06 01:34:11;;;;;;;;;;;;;;;8.94;100.00;101326.63;5114240;28;19960;-73
2024/02/06 01:36:36;;;;;;;;;;;;;;;8.95;100.00;101326.59;5113999;28;19927;-73
2024/02/06 01:39:02;;;;;;;;;;;;;;;8.94;100.00;101327.47;5113755;28;19927;-73
2024/02/06 01:41:28;;;;;;;;;;;;;;;8.95;100.00;101333.56;5114311;28;19915;-73
2024/02/06 01:43:53;;;;;;;;;;;;;;;8.94;100.00;101350.16;5114778;28;19927;-73
2024/02/06 01:46:19;;;;;;;;;;;;;;;8.96;100.00;101338.75;5114295;28;20375;-73
2024/02/06 01:48:44;;;;;;;;;;;;;;;8.95;100.00;101331.81;5114044;28;20139;-73
2024/02/06 01:51:10;;;;;;;;;;;;;;;8.98;100.00;101315.19;5114309;28;19919;-73
2024/02/06 01:53:36;;;;;;;;;;;;;;;8.98;100.00;101321.28;5114257;28;19942;-73
2024/02/06 01:56:02;;;;;;;;;;;;;;;8.98;100.00;101343.94;5105272;28;19992;-73
2024/02/06 01:58:27;;;;;;;;;;;;;;;8.99;100.00;101328.22;5114147;28;20272;-73
2024/02/06 02:00:53;;;;;;;;;;;;;;;8.99;100.00;101320.38;5113172;28;19920;-73
2024/02/06 02:03:19;;;;;;;;;;;;;;;8.98;100.00;101315.19;5113862;28;19920;-73
2024/02/06 02:05:45;;;;;;;;;;;;;;;8.98;100.00;101318.66;5114816;28;19951;-73
2024/02/06 02:08:10;;;;;;;;;;;;;;;8.97;100.00;101316.97;5113317;28;19949;-73
2024/02/06 02:10:35;;;;;;;;;;;;;;;8.97;100.00;101316.13;5113840;28;19995;-73
2024/02/06 02:13:02;;;;;;;;;;;;;;;8.96;100.00;101312.63;5113847;28;19920;-73
2024/02/06 02:15:27;;;;;;;;;;;;;;;8.97;100.00;101303.06;5114703;28;19960;-73
2024/02/06 02:17:53;;;;;;;;;;;;;;;8.96;100.00;101306.56;5113429;28;20029;-73
2024/02/06 02:20:18;;;;;;;;;;;;;;;8.95;100.00;101297.00;5114207;28;20126;-73
2024/02/06 02:22:43;;;;;;;;;;;;;;;8.96;100.00;101306.56;5112467;28;19954;-73
2024/02/06 02:25:09;;;;;;;;;;;;;;;8.94;100.00;101290.91;5099130;28;20136;-73
2024/02/06 02:27:36;;;;;;;;;;;;;;;8.95;100.00;101274.34;5080341;28;20289;-73
2024/02/06 02:30:02;;;;;;;;;;;;;;;8.96;100.00;101273.44;5075270;28;19924;-73
2024/02/06 02:32:28;;;;;;;;;;;;;;;8.95;100.00;101266.53;5093054;28;20189;-73
2024/02/06 02:34:53;;;;;;;;;;;;;;;8.95;100.00;101261.28;5093412;28;19920;-73
2024/02/06 02:37:18;;;;;;;;;;;;;;;8.99;100.00;101265.53;5093942;28;19999;-73
2024/02/06 02:39:44;;;;;;;;;;;;;;;8.96;100.00;101255.16;5093487;28;19920;-73
2024/02/06 02:42:09;;;;;;;;;;;;;;;8.96;100.00;101263.00;5093351;28;20282;-73
2024/02/06 02:44:34;;;;;;;;;;;;;;;8.97;100.00;101249.03;5093171;28;19931;-73
2024/02/06 02:46:59;;;;;;;;;;;;;;;8.97;100.00;101250.81;5093585;28;20535;-73
2024/02/06 02:49:24;;;;;;;;;;;;;;;8.97;100.00;101256.88;5093572;28;20136;-73
2024/02/06 02:51:50;;;;;;;;;;;;;;;8.98;100.00;101239.44;5094248;28;20128;-73
2024/02/06 02:54:16;;;;;;;;;;;;;;;8.97;100.00;101225.53;5097222;28;20238;-73
2024/02/06 02:56:41;;;;;;;;;;;;;;;8.97;100.00;101241.22;5097660;28;20307;-73
2024/02/06 02:59:06;;;;;;;;;;;;;;;8.98;100.00;101221.16;5095870;28;19920;-73
2024/02/06 03:01:32;;;;;;;;;;;;;;;8.99;100.00;101228.09;5097480;28;19920;-73
2024/02/06 03:03:57;;;;;;;;;;;;;;;8.99;100.00;101225.50;5096922;28;19927;-73
2024/02/06 03:06:22;;;;;;;;;;;;;;;9.00;100.00;101227.19;5097165;28;19920;-73
2024/02/06 03:08:47;;;;;;;;;;;;;;;9.01;100.00;101229.75;5078211;28;19991;-73
2024/02/06 03:11:13;;;;;;;;;;;;;;;9.02;100.00;101225.38;5096336;28;19920;-73
2024/02/06 03:13:41;;;;;;;;;;;;;;;9.02;100.00;101226.25;5096982;28;19916;-73
2024/02/06 03:16:06;;;;;;;;;;;;;;;9.02;100.00;101226.25;5095983;28;20282;-73
2024/02/06 03:18:31;;;;;;;;;;;;;;;9.02;100.00;101218.44;5096656;28;19958;-73
2024/02/06 03:20:57;;;;;;;;;;;;;;;9.01;100.00;101221.94;5096418;28;19931;-73
2024/02/06 03:23:24;;;;;;;;;;;;;;;8.99;100.00;101218.50;5096709;28;19943;-73
2024/02/06 03:25:49;;;;;;;;;;;;;;;9.01;100.00;101214.09;5096479;28;20351;-73
2024/02/06 03:28:15;;;;;;;;;;;;;;;9.01;100.00;101215.84;5097095;28;19981;-73
2024/02/06 03:30:41;;;;;;;;;;;;;;;9.01;100.00;101201.03;5093106;28;19951;-73
2024/02/06 03:33:07;;;;;;;;;;;;;;;9.01;100.00;101211.47;5096824;28;20069;-73
2024/02/06 03:35:32;;;;;;;;;;;;;;;9.00;100.00;101190.63;5099001;28;19999;-73
2024/02/06 03:37:57;;;;;;;;;;;;;;;9.02;100.00;101205.38;5095728;28;20131;-73
2024/02/06 03:40:22;;;;;;;;;;;;;;;9.04;100.00;101200.09;5111679;28;19989;-73
2024/02/06 03:42:48;;;;;;;;;;;;;;;9.05;100.00;101204.41;5097212;28;19916;-73
2024/02/06 03:45:14;;;;;;;;;;;;;;;9.06;100.00;101192.19;5096597;28;19927;-73
2024/02/06 03:47:39;;;;;;;;;;;;;;;9.04;100.00;101200.09;5078374;28;19920;-74
2024/02/06 03:50:05;;;;;;;;;;;;;;;9.03;100.00;101180.94;5096199;28;20127;-73
2024/02/06 03:52:30;;;;;;;;;;;;;;;9.04;100.00;101205.31;5096570;28;20269;-73
2024/02/06 03:54:56;;;;;;;;;;;;;;;9.06;100.00;101200.91;5097619;28;19978;-73
2024/02/06 03:57:21;;;;;;;;;;;;;;;9.06;100.00;101174.78;5096426;28;19924;-73
2024/02/06 03:59:46;;;;;;;;;;;;;;;9.08;100.00;101187.78;5095916;28;19919;-73
2024/02/06 04:02:12;;;;;;;;;;;;;;;9.10;100.00;101191.22;5092948;28;19942;-74
2024/02/06 04:04:38;;;;;;;;;;;;;;;9.10;100.00;101199.91;5099978;28;19973;-74
2024/02/06 04:07:03;;;;;;;;;;;;;;;9.10;100.00;101186.84;5090143;28;20092;-73
2024/02/06 04:09:28;;;;;;;;;;;;;;;9.10;100.00;101184.25;5098166;28;19923;-74
2024/02/06 04:11:54;;;;;;;;;;;;;;;9.10;100.00;101183.38;5088708;28;20176;-73
2024/02/06 04:14:19;;;;;;;;;;;;;;;9.11;100.00;101180.72;5095948;28;20235;-73
2024/02/06 04:16:44;;;;;;;;;;;;;;;9.11;100.00;101178.09;5096771;28;20150;-74
2024/02/06 04:19:09;;;;;;;;;;;;;;;9.12;100.00;101185.03;5095116;28;20231;-74
2024/02/06 04:21:35;;;;;;;;;;;;;;;9.14;100.00;101172.78;5096794;28;19923;-73
2024/02/06 04:24:00;;;;;;;;;;;;;;;9.15;100.00;101184.09;5092670;28;20181;-74
2024/02/06 04:26:26;;;;;;;;;;;;;;;9.18;100.00;101184.00;5110336;28;19920;-74
2024/02/06 04:28:51;;;;;;;;;;;;;;;9.18;100.00;101165.72;5115241;28;19923;-74
2024/02/06 04:31:16;;;;;;;;;;;;;;;9.19;100.00;101180.50;5097363;28;19919;-74
2024/02/06 04:33:41;;;;;;;;;;;;;;;9.19;100.00;101167.44;5114558;28;19919;-74
2024/02/06 04:36:07;;;;;;;;;;;;;;;9.20;100.00;101169.13;5113727;28;19920;-73
2024/02/06 04:38:32;;;;;;;;;;;;;;;9.19;100.00;101162.22;5113473;28;20131;-73
2024/02/06 04:40:58;;;;;;;;;;;;;;;9.17;100.00;101170.09;5112397;28;19934;-73
2024/02/06 04:43:23;;;;;;;;;;;;;;;9.18;100.00;101161.34;5110897;28;19927;-73
2024/02/06 04:45:48;;;;;;;;;;;;;;;9.18;100.00;101143.03;5115925;28;19923;-74
2024/02/06 04:48:13;;;;;;;;;;;;;;;9.18;100.00;101137.81;5115021;28;20139;-73
2024/02/06 04:50:38;;;;;;;;;;;;;;;9.21;100.00;101147.34;5115070;28;19911;-73
2024/02/06 04:53:04;;;;;;;;;;;;;;;9.19;100.00;101151.75;5115276;28;20283;-73
2024/02/06 04:55:32;;;;;;;;;;;;;;;9.21;100.00;101144.72;5115163;28;20485;-74
2024/02/06 04:57:58;;;;;;;;;;;;;;;9.22;100.00;101139.47;5115111;28;19998;-74
2024/02/06 05:00:24;;;;;;;;;;;;;;;9.22;100.00;101151.66;5115109;28;19920;-73
2024/02/06 05:02:49;;;;;;;;;;;;;;;9.18;100.00;101139.59;5114942;28;19927;-74
2024/02/06 05:05:15;;;;;;;;;;;;;;;9.20;100.00;101145.63;5113865;28;19931;-74
2024/02/06 05:07:40;;;;;;;;;;;;;;;9.17;100.00;101130.06;5114960;28;20358;-73
2024/02/06 05:10:08;;;;;;;;;;;;;;;9.16;100.00;101134.41;5096379;28;19919;-74
2024/02/06 05:12:33;;;;;;;;;;;;;;;9.16;100.00;101131.78;5115120;28;20134;-73
2024/02/06 05:14:59;;;;;;;;;;;;;;;9.17;100.00;101130.91;5113818;28;19915;-74
2024/02/06 05:17:26;;;;;;;;;;;;;;;9.17;100.00;101137.88;5114768;28;19928;-73
2024/02/06 05:19:51;;;;;;;;;;;;;;;9.15;100.00;101117.03;5114365;28;19986;-74
2024/02/06 05:22:16;;;;;;;;;;;;;;;9.17;100.00;101127.44;5114404;28;19923;-73
2024/02/06 05:24:43;;;;;;;;;;;;;;;9.20;100.00;101114.25;5112095;28;20211;-73
2024/02/06 05:27:08;;;;;;;;;;;;;;;9.20;100.00;101125.59;5112639;28;19926;-73
2024/02/06 05:29:34;;;;;;;;;;;;;;;9.16;100.00;101118.72;5114729;28;19919;-73
2024/02/06 05:31:59;;;;;;;;;;;;;;;9.18;100.00;101118.69;5114580;28;20010;-73
2024/02/06 05:34:25;;;;;;;;;;;;;;;9.16;100.00;101123.94;5114542;28;19951;-73
2024/02/06 05:36:50;;;;;;;;;;;;;;;9.15;100.00;101119.63;5114766;28;19924;-73
2024/02/06 05:39:16;;;;;;;;;;;;;;;9.15;100.00;101105.69;5104172;28;19920;-74
2024/02/06 05:41:41;;;;;;;;;;;;;;;9.16;100.00;101102.19;5114506;28;19919;-74
2024/02/06 05:44:07;;;;;;;;;;;;;;;9.16;100.00;101102.19;5114341;28;20246;-73
2024/02/06 05:46:32;;;;;;;;;;;;;;;9.16;100.00;101104.81;5114342;28;19965;-74
2024/02/06 05:48:57;;;;;;;;;;;;;;;9.14;100.00;101106.63;5113856;28;19919;-74
2024/02/06 05:51:22;;;;;;;;;;;;;;;9.15;100.00;101087.41;5114332;28;19955;-74
2024/02/06 05:53:48;;;;;;;;;;;;;;;9.16;100.00;101086.53;5114397;28;19924;-74
2024/02/06 05:56:13;;;;;;;;;;;;;;;9.15;100.00;101100.47;5113023;28;19924;-74
2024/02/06 05:58:41;;;;;;;;;;;;;;;9.14;100.00;101086.56;5113918;28;20104;-73
2024/02/06 06:01:06;;;;;;;;;;;;;;;9.15;100.00;101096.13;5114171;28;20465;-74
2024/02/06 06:03:32;;;;;;;;;;;;;;;9.17;100.00;101098.69;5113658;28;19926;-74
2024/02/06 06:05:57;;;;;;;;;;;;;;;9.17;100.00;101088.25;5114453;28;19920;-74
2024/02/06 06:08:23;;;;;;;;;;;;;;;9.17;100.00;101076.03;5113883;28;19926;-74
2024/02/06 06:10:48;;;;;;;;;;;;;;;9.16;100.00;101074.31;5114920;28;19994;-74
2024/02/06 06:13:13;;;;;;;;;;;;;;;9.18;100.00;101076.88;5113520;28;20156;-74
2024/02/06 06:15:40;;;;;;;;;;;;;;;9.22;100.00;101068.03;5114647;28;19991;-74
2024/02/06 06:18:05;;;;;;;;;;;;;;;9.20;100.00;101075.06;5113118;28;20305;-74
2024/02/06 06:20:31;;;;;;;;;;;;;;;9.20;100.00;101060.25;5114401;28;19920;-74
2024/02/06 06:22:56;;;;;;;;;;;;;;;9.23;100.00;101080.19;5114090;28;19942;-74
2024/02/06 06:25:21;;;;;;;;;;;;;;;9.22;100.00;101057.56;5113809;28;19955;-74
2024/02/06 06:27:47;;;;;;;;;;;;;;;9.21;100.00;101061.94;5105767;28;19912;-74
2024/02/06 06:30:12;;;;;;;;;;;;;;;9.23;100.00;101067.97;5114788;28;19982;-74
2024/02/06 06:32:40;;;;;;;;;;;;;;;9.23;100.00;101054.91;5118035;28;19984;-74
2024/02/06 06:35:05;;;;;;;;;;;;;;;9.22;100.00;101050.59;5112806;28;20422;-74
2024/02/06 06:37:31;;;;;;;;;;;;;;;9.21;100.00;101061.94;5117842;28;20199;-74
2024/02/06 06:39:56;;;;;;;;;;;;;;;9.25;100.00;101033.13;5116110;28;19987;-74
2024/02/06 06:42:21;;;;;;;;;;;;;;;9.24;100.00;101040.13;5117539;28;19987;-74
2024/02/06 06:44:47;;;;;;;;;;;;;;;9.25;100.00;101043.56;5117930;28;19942;-74
2024/02/06 06:47:12;;;;;;;;;;;;;;;9.25;100.00;101052.25;5117522;28;19911;-74
2024/02/06 06:49:38;;;;;;;;;;;;;;;9.25;100.00;101052.25;5118675;28;19927;-74
2024/02/06 06:52:05;;;;;;;;;;;;;;;9.25;100.00;101036.56;5118050;28;19915;-74
2024/02/06 06:54:30;;;;;;;;;;;;;;;9.28;100.00;101048.69;5118673;28;19947;-74
2024/02/06 06:56:55;;;;;;;;;;;;;;;9.27;100.00;101040.00;5099723;28;19920;-74
2024/02/06 06:59:21;;;;;;;;;;;;;;;9.28;100.00;101039.09;5117571;28;19919;-74
2024/02/06 07:01:46;;;;;;;;;;;;;;;9.27;100.00;101028.69;5118094;28;20008;-74
2024/02/06 07:04:12;;;;;;;;;;;;;;;9.28;100.00;101043.44;5116927;28;19977;-74
2024/02/06 07:06:38;;;;;;;;;;;;;;;9.27;100.00;101036.53;5118250;28;19923;-74
2024/02/06 07:09:04;;;;;;;;;;;;;;;9.27;100.00;101036.53;5118106;28;20111;-74
2024/02/06 07:11:29;;;;;;;;;;;;;;;9.27;100.00;101041.75;5117739;28;19920;-74
2024/02/06 07:13:54;;;;;;;;;;;;;;;9.25;100.00;101065.31;5117797;28;19919;-74
2024/02/06 07:16:20;;;;;;;;;;;;;;;9.28;100.00;101036.50;5115995;28;19923;-74
2024/02/06 07:18:45;;;;;;;;;;;;;;;9.27;100.00;101055.66;5117881;28;20229;-74
2024/02/06 07:21:10;;;;;;;;;;;;;;;9.29;100.00;101046.03;5117598;28;19947;-74
2024/02/06 07:23:36;;;;;;;;;;;;;;;9.27;100.00;101029.53;5118053;28;19922;-74
2024/02/06 07:26:01;;;;;;;;;;;;;;;9.29;100.00;101030.34;5116953;28;19927;-74
2024/02/06 07:28:26;;;;;;;;;;;;;;;9.28;100.00;101033.00;5117065;28;20076;-74
2024/02/06 07:30:52;;;;;;;;;;;;;;;9.31;100.00;101032.91;5117375;28;20006;-74
2024/02/06 07:33:17;;;;;;;;;;;;;;;9.30;100.00;101037.28;5116380;28;19961;-74
2024/02/06 07:35:42;;;;;;;;;;;;;;;9.29;100.00;101039.94;5117854;28;19915;-74
2024/02/06 07:38:07;;;;;;;;;;;;;;;9.30;100.00;101041.66;5116715;28;19923;-74
2024/02/06 07:40:32;;;;;;;;;;;;;;;9.29;100.00;101038.19;5117425;28;19923;-74
2024/02/06 07:43:00;;;;;;;;;;;;;;;9.32;100.00;101040.69;5116028;28;19923;-74
2024/02/06 07:45:25;;;;;;;;;;;;;;;9.31;100.00;101025.06;5116057;28;20135;-74
2024/02/06 07:47:50;;;;;;;;;;;;;;;9.31;100.00;101023.31;5114116;28;20255;-74
2024/02/06 07:50:16;;;;;;;;;;;;;;;9.33;100.00;101031.97;5114892;28;19954;-74
2024/02/06 07:52:42;;;;;;;;;;;;;;;9.32;100.00;101027.63;5116038;28;20458;-74
2024/02/06 07:55:08;;;;;;;;;;;;;;;9.34;100.00;101017.13;5115642;28;19915;-74
2024/02/06 07:57:33;;;;;;;;;;;;;;;9.36;100.00;101041.47;5098249;28;19920;-74
2024/02/06 07:59:59;;;;;;;;;;;;;;;9.37;100.00;101036.19;5099631;28;19920;-74
2024/02/06 08:02:24;;;;;;;;;;;;;;;9.37;100.00;101027.50;5116164;28;19950;-74
2024/02/06 08:04:52;;;;;;;;;;;;;;;9.36;100.00;101026.63;5116630;28;19919;-74
2024/02/06 08:07:18;;;;;;;;;;;;;;;9.38;100.00;101029.19;5117208;28;20482;-74
2024/02/06 08:09:43;;;;;;;;;;;;;;;9.39;100.00;101030.91;5116861;28;20133;-74
2024/02/06 08:12:08;;;;;;;;;;;;;;;9.40;100.00;101023.03;5116050;28;20138;-74
2024/02/06 08:14:34;;;;;;;;;;;;;;;9.40;100.00;101023.03;5115783;28;19999;-74
2024/02/06 08:16:59;;;;;;;;;;;;;;;9.46;100.00;101015.88;5129892;27;19923;-74
2024/02/06 08:19:25;;;;;;;;;;;;;;;9.47;100.00;101020.19;5136178;27;19931;-74
2024/02/06 08:21:50;;;;;;;;;;;;;;;9.48;100.00;101004.47;5122781;27;19912;-74
2024/02/06 08:24:16;;;;;;;;;;;;;;;9.47;100.00;101004.50;5107765;28;19983;-74
2024/02/06 08:26:41;;;;;;;;;;;;;;;9.49;100.00;101007.94;5115756;28;19923;-74
2024/02/06 08:29:06;;;;;;;;;;;;;;;9.48;100.00;100999.25;5115982;28;19957;-74
2024/02/06 08:31:32;;;;;;;;;;;;;;;9.49;100.00;101010.53;5116116;28;19915;-74
2024/02/06 08:33:59;;;;;;;;;;;;;;;9.52;100.00;101005.22;5115322;28;19946;-74
2024/02/06 08:36:24;;;;;;;;;;;;;;;9.54;100.00;101013.88;5115230;28;19920;-77
2024/02/06 08:38:49;;;;;;;;;;;;;;;9.55;100.00;101016.44;5115245;28;19916;-74
2024/02/06 08:41:14;;;;;;;;;;;;;;;9.56;100.00;100994.59;5115568;28;20143;-74
2024/02/06 08:43:40;;;;;;;;;;;;;;;9.60;100.00;101009.28;5115090;28;19927;-74
2024/02/06 08:46:05;;;;;;;;;;;;;;;9.59;100.00;100996.25;5112248;27;20293;-74
2024/02/06 08:48:31;;;;;;;;;;;;;;;9.59;100.00;100967.50;5114764;28;19920;-74
2024/02/06 08:50:56;;;;;;;;;;;;;;;9.60;100.00;100990.09;5113800;28;19916;-74
2024/02/06 08:53:22;;;;;;;;;;;;;;;9.60;100.00;100971.81;5114493;28;19943;-74
2024/02/06 08:55:48;;;;;;;;;;;;;;;9.61;100.00;100971.75;5114580;28;19999;-74
2024/02/06 08:58:13;;;;;;;;;;;;;;;9.61;100.00;100997.91;5113755;28;20127;-74
2024/02/06 09:00:38;;;;;;;;;;;;;;;9.63;100.00;100982.16;5113927;27;19922;-74
2024/02/06 09:03:04;;;;;;;;;;;;;;;9.63;100.00;100982.16;5090647;27;19924;-74
2024/02/06 09:05:29;;;;;;;;;;;;;;;9.64;100.00;100978.66;5078661;28;20018;-74
2024/02/06 09:07:54;;;;;;;;;;;;;;;9.69;100.00;100973.25;5096326;28;20036;-73
2024/02/06 09:10:20;;;;;;;;;;;;;;;9.69;100.00;100984.56;5094929;28;19958;-74
2024/02/06 09:12:45;;;;;;;;;;;;;;;9.73;100.00;100987.94;5086462;28;19943;-74
2024/02/06 09:15:11;;;;;;;;;;;;;;;9.74;100.00;100968.72;5097643;28;19944;-74
2024/02/06 09:17:36;;;;;;;;;;;;;;;9.74;100.00;100971.34;5095514;28;19926;-74
2024/02/06 09:20:02;;;;;;;;;;;;;;;9.76;100.00;100982.59;5097210;28;19952;-74
2024/02/06 09:22:27;;;;;;;;;;;;;;;9.75;100.00;100976.53;5096960;27;19950;-74
2024/02/06 09:24:53;;;;;;;;;;;;;;;9.79;100.00;100958.97;5102086;27;20254;-74
2024/02/06 09:27:18;;;;;;;;;;;;;;;9.82;100.00;100966.69;5108201;27;19955;-74
2024/02/06 09:29:43;;;;;;;;;;;;;;;9.84;100.00;100964.88;5109821;27;20192;-74
2024/02/06 09:32:08;;;;;;;;;;;;;;;9.85;100.00;100926.50;5090627;28;19920;-74
2024/02/06 09:34:34;;;;;;;;;;;;;;;9.87;100.00;100935.13;5089928;28;19927;-74
2024/02/06 09:36:59;;;;;;;;;;;;;;;9.89;100.00;100931.53;5108374;28;20142;-73
2024/02/06 09:39:24;;;;;;;;;;;;;;;9.91;100.00;100924.50;5108115;28;19916;-73
2024/02/06 09:41:50;;;;;;;;;;;;;;;9.92;100.00;100926.22;5109813;28;19926;-73
2024/02/06 09:44:15;;;;;;;;;;;;;;;9.95;100.00;100920.88;5109201;28;20403;-73
2024/02/06 09:46:42;;;;;;;;;;;;;;;9.98;100.00;100907.66;5106768;28;19927;-75
2024/02/06 09:49:07;;;;;;;;;;;;;;;10.01;100.00;100906.72;5106256;28;19958;-73
2024/02/06 09:51:38;;;;;;;;;;;;;;;10.05;100.00;100899.59;5106663;28;20115;-73
2024/02/06 09:54:05;;;;;;;;;;;;;;;10.07;100.00;100903.84;5109274;28;19916;-73
2024/02/06 09:56:30;;;;;;;;;;;;;;;10.09;100.00;100894.19;5109711;28;20294;-73
2024/02/06 09:58:57;;;;;;;;;;;;;;;10.13;100.00;100898.41;5111078;28;19920;-73
2024/02/06 10:01:23;;;;;;;;;;;;;;;10.17;100.00;100899.16;5108302;28;19943;-73
2024/02/06 10:03:52;;;;;;;;;;;;;;;10.19;100.00;100892.94;5084987;28;19923;-73
2024/02/06 10:06:19;;;;;;;;;;;;;;;10.22;100.00;100891.94;5091588;28;19916;-73
2024/02/06 10:08:47;;;;;;;;;;;;;;;10.25;100.00;100883.97;5094005;28;20120;-73
2024/02/06 10:11:13;;;;;;;;;;;;;;;10.29;100.00;100882.94;5094587;28;19923;-73
2024/02/06 10:13:38;;;;;;;;;;;;;;;10.30;100.00;100875.97;5095263;28;19934;-73
2024/02/06 10:16:03;;;;;;;;;;;;;;;10.34;100.00;100874.97;5094250;28;19916;-73
2024/02/06 10:18:29;;;;;;;;;;;;;;;10.36;100.00;100875.75;5091427;28;20386;-73
2024/02/06 10:20:54;;;;;;;;;;;;;;;10.40;100.00;100887.78;5108968;28;19916;-73
2024/02/06 10:23:19;;;;;;;;;;;;;;;10.46;100.00;100878.84;5079091;28;19916;-73
2024/02/06 10:25:46;;;;;;;;;;;;;;;10.47;100.00;100891.88;5108663;28;19959;-73
2024/02/06 10:28:24;;;;;;;;;;;;;;;10.47;100.00;100852.59;5108619;28;20372;-72
2024/02/06 10:30:49;;;;;;;;;;;;;;;10.46;100.00;100890.19;5090575;28;19920;-73
2024/02/06 10:33:15;;;;;;;;;;;;;;;10.47;100.00;100902.34;5110348;28;20184;-73
2024/02/06 10:35:41;;;;;;;;;;;;;;;10.48;100.00;100871.81;5110331;28;20241;-73
2024/02/06 10:38:12;;;;;;;;;;;;;;;10.47;100.00;100830.81;5109724;28;19920;-73
2024/02/06 10:40:41;;;;;;;;;;;;;;;10.47;100.00;100870.09;5110369;28;19927;-73
2024/02/06 10:43:07;;;;;;;;;;;;;;;10.46;100.00;100864.00;5109896;28;19957;-73
2024/02/06 10:45:32;;;;;;;;;;;;;;;10.44;100.00;100868.47;5110433;28;19919;-73
2024/02/06 10:47:58;;;;;;;;;;;;;;;10.47;100.00;100864.84;5109656;28;20150;-73
2024/02/06 10:50:23;;;;;;;;;;;;;;;10.43;100.00;100868.53;5093924;28;19920;-73
2024/02/06 10:52:49;;;;;;;;;;;;;;;10.43;100.00;100871.13;5100826;28;19992;-73
2024/02/06 10:55:15;;;;;;;;;;;;;;;10.36;100.00;100876.59;5106782;28;19939;-73
2024/02/06 10:57:41;;;;;;;;;;;;;;;10.36;100.00;100901.94;5110565;28;19923;-73
2024/02/06 11:00:15;;;;;;;;;;;;;;;10.35;100.00;100876.66;5090672;28;19964;-73
2024/02/06 11:02:43;;;;;;;;;;;;;;;10.34;100.00;100880.19;5109876;28;19907;-73
2024/02/06 11:05:17;;;;;;;;;;;;;;;10.32;100.00;100876.78;5108022;28;19920;-73
2024/02/06 11:07:45;;;;;;;;;;;;;;;10.33;100.00;100897.69;5109459;28;20170;-73
2024/02/06 11:10:15;;;;;;;;;;;;;;;10.35;100.00;100897.59;5108531;28;20112;-73
2024/02/06 11:12:42;;;;;;;;;;;;;;;10.34;100.00;100901.97;5110189;28;20274;-73
2024/02/06 11:15:08;;;;;;;;;;;;;;;10.34;100.00;100899.38;5112146;28;20009;-73
2024/02/06 11:17:33;;;;;;;;;;;;;;;10.35;100.00;100889.72;5111408;28;19931;-73
2024/02/06 11:20:04;;;;;;;;;;;;;;;10.36;100.00;100887.06;5112560;28;19919;-73
2024/02/06 11:22:31;;;;;;;;;;;;;;;10.35;100.00;100887.13;5113046;28;19908;-73
2024/02/06 11:24:57;;;;;;;;;;;;;;;10.37;100.00;100906.25;5111856;28;19991;-73
2024/02/06 11:27:23;;;;;;;;;;;;;;;10.36;100.00;100900.16;5108808;27;20131;-73
2024/02/06 11:29:49;;;;;;;;;;;;;;;10.36;100.00;100907.16;5112630;28;19922;-73
2024/02/06 11:32:14;;;;;;;;;;;;;;;10.36;100.00;100917.63;5112481;28;20147;-73
2024/02/06 11:34:52;;;;;;;;;;;;;;;10.38;100.00;100911.41;5112968;28;20199;-73
2024/02/06 11:37:28;;;;;;;;;;;;;;;10.39;100.00;100893.97;5112657;28;19974;-73
2024/02/06 11:40:06;;;;;;;;;;;;;;;10.38;100.00;100873.91;5093719;28;19915;-73
2024/02/06 11:42:35;;;;;;;;;;;;;;;10.35;100.00;100902.81;5113513;28;19916;-73
2024/02/06 11:45:04;;;;;;;;;;;;;;;10.39;100.00;100865.16;5111138;28;19916;-73
2024/02/06 11:47:29;;;;;;;;;;;;;;;10.37;100.00;100851.28;5111721;28;19916;-73
2024/02/06 11:50:04;;;;;;;;;;;;;;;10.34;100.00;100857.47;5112248;28;20219;-73
2024/02/06 11:52:30;;;;;;;;;;;;;;;10.35;100.00;100845.22;5112492;28;19922;-73
2024/02/06 11:54:55;;;;;;;;;;;;;;;10.36;100.00;100842.56;5112733;27;20018;-73
2024/02/06 11:57:20;;;;;;;;;;;;;;;10.36;100.00;100812.91;5112342;28;19984;-73
2024/02/06 11:59:46;;;;;;;;;;;;;;;10.40;100.00;100842.44;5112709;28;19916;-73
2024/02/06 12:02:16;;;;;;;;;;;;;;;10.39;100.00;100823.28;5111263;28;20085;-73
2024/02/06 12:04:42;;;;;;;;;;;;;;;10.38;100.00;100822.41;5111185;28;20196;-73
2024/02/06 12:07:07;;;;;;;;;;;;;;;10.37;100.00;100823.34;5110931;28;19961;-73
2024/02/06 12:09:40;;;;;;;;;;;;;;;10.41;100.00;100842.38;5108733;28;19915;-73
2024/02/06 12:12:06;;;;;;;;;;;;;;;10.43;100.00;100827.47;5110394;28;19939;-73
2024/02/06 12:14:31;;;;;;;;;;;;;;;10.47;100.00;100818.56;5111829;28;19916;-73
2024/02/06 12:16:57;;;;;;;;;;;;;;;10.50;100.00;100828.94;5109149;28;19959;-73
2024/02/06 12:19:25;;;;;;;;;;;;;;;10.53;100.00;100804.38;5109038;28;20189;-73
2024/02/06 12:21:59;;;;;;;;;;;;;;;10.54;100.00;100838.34;5111006;28;19943;-74
2024/02/06 12:24:25;;;;;;;;;;;;;;;10.47;100.00;100839.50;5111241;28;19939;-74
2024/02/06 12:26:51;;;;;;;;;;;;;;;10.48;100.00;100830.75;5111210;28;19946;-73
2024/02/06 12:29:16;;;;;;;;;;;;;;;10.51;100.00;100830.66;5111255;28;19916;-73